Time;durP1;ratioP1;P1;durP2;ratioP2;P2;SDS_P1;SDS_P2;PMS_P1;PMS_P2;Temp;Humidity;BMP_temperature;BMP_pressure;BME280_temperature;BME280_humidity;BME280_pressure;Samples;Min_cycle;Max_cycle;Signal;HPM_P1;HPM_P2
2021/08/23 00:01:20;;;;;;;;;;;;;;;28.94;43.27;101030.91;5076470;28;939;-35
2021/08/23 00:03:45;;;;;;;;;;;;;;;28.91;43.33;101038.56;5095877;28;814;-35
2021/08/23 00:06:10;;;;;;;;;;;;;;;28.93;43.32;101037.31;5096243;28;812;-35
2021/08/23 00:08:36;;;;;;;;;;;;;;;29.01;43.10;101032.88;5096290;28;878;-41
2021/08/23 00:11:01;;;;;;;;;;;;;;;28.94;43.33;101035.47;5096447;28;764;-35
2021/08/23 00:13:26;;;;;;;;;;;;;;;29.01;43.25;101036.41;5098126;28;743;-38
2021/08/23 00:15:55;;;;;;;;;;;;;;;28.95;43.25;101034.44;5100339;28;757;-35
2021/08/23 00:18:20;;;;;;;;;;;;;;;28.98;43.41;101034.06;5082271;28;1960;-37
2021/08/23 00:20:51;;;;;;;;;;;;;;;28.87;43.49;101032.66;5079829;28;796;-44
2021/08/23 00:23:17;;;;;;;;;;;;;;;29.02;43.09;101021.84;5080091;28;838;-34
2021/08/23 00:25:43;;;;;;;;;;;;;;;29.00;42.98;101025.75;5078862;28;831;-35
2021/08/23 00:28:08;;;;;;;;;;;;;;;29.06;43.10;101028.56;5079585;28;811;-35
2021/08/23 00:30:34;;;;;;;;;;;;;;;29.00;43.07;101029.31;5079872;28;744;-35
2021/08/23 00:32:59;;;;;;;;;;;;;;;29.03;43.00;101025.41;5094570;28;986;-35
2021/08/23 00:35:25;;;;;;;;;;;;;;;29.03;43.37;101031.63;5099852;28;782;-35
2021/08/23 00:37:50;;;;;;;;;;;;;;;29.04;43.26;101030.63;5099953;28;1905;-38
2021/08/23 00:40:16;;;;;;;;;;;;;;;28.99;43.20;101029.50;5098903;28;846;-35
2021/08/23 00:42:41;;;;;;;;;;;;;;;29.02;43.52;101026.41;5099833;28;747;-36
2021/08/23 00:45:06;;;;;;;;;;;;;;;29.13;43.28;101027.81;5099729;28;783;-35
2021/08/23 00:47:32;;;;;;;;;;;;;;;29.13;43.13;101025.94;5087890;28;953;-36
2021/08/23 00:49:57;;;;;;;;;;;;;;;29.08;43.14;101017.53;5091389;28;1538;-35
2021/08/23 00:52:22;;;;;;;;;;;;;;;29.07;43.32;101015.84;5099593;28;795;-35
2021/08/23 00:54:47;;;;;;;;;;;;;;;29.07;43.51;101018.56;5099147;28;831;-35
2021/08/23 00:57:13;;;;;;;;;;;;;;;29.12;43.19;101023.41;5098627;28;792;-35
2021/08/23 00:59:39;;;;;;;;;;;;;;;29.06;43.43;101014.19;5099393;28;1917;-35
2021/08/23 01:02:19;;;;;;;;;;;;;;;29.04;43.37;101008.97;5090554;28;950;-35
2021/08/23 01:04:52;;;;;;;;;;;;;;;29.07;43.39;101016.72;5078925;28;795;-35
2021/08/23 01:07:18;;;;;;;;;;;;;;;29.09;43.36;101014.63;5077717;28;1252;-35
2021/08/23 01:09:47;;;;;;;;;;;;;;;29.06;43.60;101009.59;5077300;28;744;-35
2021/08/23 01:12:13;;;;;;;;;;;;;;;29.09;43.35;100998.38;5079455;28;740;-35
2021/08/23 01:14:38;;;;;;;;;;;;;;;29.10;43.52;101012.75;5079136;28;795;-41
2021/08/23 01:17:04;;;;;;;;;;;;;;;29.08;43.45;101012.97;5085098;28;1017;-35
2021/08/23 01:19:30;;;;;;;;;;;;;;;29.23;43.26;101009.38;5098974;28;1961;-41
2021/08/23 01:21:55;;;;;;;;;;;;;;;29.16;43.46;101011.19;5099459;28;809;-35
2021/08/23 01:24:21;;;;;;;;;;;;;;;29.15;43.21;101004.06;5098086;28;740;-36
2021/08/23 01:26:47;;;;;;;;;;;;;;;29.16;43.52;101003.88;5097904;28;787;-36
2021/08/23 01:29:32;;;;;;;;;;;;;;;29.14;43.57;100995.13;5097908;28;798;-36
2021/08/23 01:32:16;;;;;;;;;;;;;;;29.20;43.37;100998.91;5083916;28;1371;-35
2021/08/23 01:34:41;;;;;;;;;;;;;;;29.11;43.75;100995.50;5098746;28;783;-35
2021/08/23 01:37:07;;;;;;;;;;;;;;;29.14;43.44;100995.13;5097193;28;1404;-35
2021/08/23 01:39:32;;;;;;;;;;;;;;;29.17;43.64;100992.03;5098425;28;1913;-43
2021/08/23 01:41:58;;;;;;;;;;;;;;;29.19;43.61;100994.53;5098856;28;751;-35
2021/08/23 01:44:23;;;;;;;;;;;;;;;29.19;43.59;100998.09;5098012;28;854;-35
2021/08/23 01:46:48;;;;;;;;;;;;;;;29.24;43.11;100994.81;5093249;28;949;-44
2021/08/23 01:49:14;;;;;;;;;;;;;;;29.17;43.34;100992.03;5083825;28;1550;-35
2021/08/23 01:51:39;;;;;;;;;;;;;;;29.16;43.37;100986.81;5098417;28;755;-35
2021/08/23 01:54:04;;;;;;;;;;;;;;;29.15;43.51;100991.38;5098296;28;775;-35
2021/08/23 01:56:30;;;;;;;;;;;;;;;29.20;43.21;100988.94;5098054;28;798;-35
2021/08/23 01:58:55;;;;;;;;;;;;;;;29.18;43.43;100992.84;5098081;28;1914;-35
2021/08/23 02:01:21;;;;;;;;;;;;;;;29.17;43.38;100994.72;5096855;28;965;-35
2021/08/23 02:03:47;;;;;;;;;;;;;;;29.21;43.23;100987.06;5078045;28;752;-35
2021/08/23 02:06:12;;;;;;;;;;;;;;;29.21;43.42;100992.50;5077401;28;853;-35
2021/08/23 02:08:37;;;;;;;;;;;;;;;29.21;43.42;100995.19;5077171;28;1464;-43
2021/08/23 02:11:03;;;;;;;;;;;;;;;29.06;43.61;100989.81;5077952;28;760;-35
2021/08/23 02:13:28;;;;;;;;;;;;;;;29.02;42.94;100993.91;5077352;28;816;-33
2021/08/23 02:15:53;;;;;;;;;;;;;;;29.05;43.54;101002.50;5075904;28;1170;-34
2021/08/23 02:18:18;;;;;;;;;;;;;;;29.22;42.91;100996.88;5095040;28;1955;-40
2021/08/23 02:20:44;;;;;;;;;;;;;;;29.20;43.15;100998.91;5097903;28;779;-32
2021/08/23 02:23:09;;;;;;;;;;;;;;;29.20;42.95;100996.19;5097544;28;808;-42
2021/08/23 02:25:34;;;;;;;;;;;;;;;29.28;42.69;100996.09;5097450;28;831;-33
2021/08/23 02:27:59;;;;;;;;;;;;;;;29.34;42.61;100994.50;5097879;28;819;-34
2021/08/23 02:30:25;;;;;;;;;;;;;;;29.26;42.64;100998.13;5097493;28;863;-34
2021/08/23 02:32:50;;;;;;;;;;;;;;;29.38;42.43;101003.09;5083942;28;1021;-33
2021/08/23 02:35:15;;;;;;;;;;;;;;;29.32;42.65;101008.22;5075959;28;1377;-33
2021/08/23 02:37:40;;;;;;;;;;;;;;;29.41;42.58;101005.41;5076612;28;1893;-34
2021/08/23 02:40:06;;;;;;;;;;;;;;;29.42;42.26;101001.66;5092543;28;740;-41
2021/08/23 02:42:31;;;;;;;;;;;;;;;29.44;42.32;101003.16;5097680;28;760;-34
2021/08/23 02:44:57;;;;;;;;;;;;;;;29.47;42.29;101004.63;5082626;28;799;-34
2021/08/23 02:47:22;;;;;;;;;;;;;;;29.53;42.22;101003.84;5088328;28;915;-34
2021/08/23 02:49:47;;;;;;;;;;;;;;;29.56;41.95;100999.94;5086412;28;1549;-34
2021/08/23 02:52:12;;;;;;;;;;;;;;;29.54;42.26;101000.13;5077220;28;764;-34
2021/08/23 02:54:41;;;;;;;;;;;;;;;29.54;42.19;101005.53;5077142;28;839;-41
2021/08/23 02:57:06;;;;;;;;;;;;;;;29.52;42.27;101014.88;5076389;28;717;-41
2021/08/23 02:59:31;;;;;;;;;;;;;;;29.59;41.82;101013.13;5076609;28;1962;-33
2021/08/23 03:01:57;;;;;;;;;;;;;;;29.60;42.21;101016.66;5077056;28;1068;-34
2021/08/23 03:04:22;;;;;;;;;;;;;;;29.56;42.21;101014.28;5076730;28;852;-40
2021/08/23 03:06:47;;;;;;;;;;;;;;;29.52;42.20;101014.88;5076146;28;961;-34
2021/08/23 03:09:12;;;;;;;;;;;;;;;29.65;41.75;101012.34;5076770;28;768;-34
2021/08/23 03:11:38;;;;;;;;;;;;;;;29.64;41.95;101007.09;5079374;28;1396;-34
2021/08/23 03:14:03;;;;;;;;;;;;;;;29.72;41.77;101020.53;5095177;28;791;-41
2021/08/23 03:16:28;;;;;;;;;;;;;;;29.60;42.18;101013.94;5079446;28;871;-33
2021/08/23 03:18:54;;;;;;;;;;;;;;;29.64;42.00;101018.81;5095773;28;1956;-35
2021/08/23 03:21:19;;;;;;;;;;;;;;;29.72;41.86;101020.53;5076455;28;796;-34
2021/08/23 03:23:44;;;;;;;;;;;;;;;29.68;41.82;101022.78;5076383;28;810;-34
2021/08/23 03:26:09;;;;;;;;;;;;;;;29.75;41.78;101027.44;5076220;28;847;-42
2021/08/23 03:28:35;;;;;;;;;;;;;;;29.69;41.86;101020.94;5076431;28;854;-34
2021/08/23 03:31:00;;;;;;;;;;;;;;;29.76;41.89;101034.53;5080443;28;1316;-34
2021/08/23 03:33:26;;;;;;;;;;;;;;;29.66;41.76;101021.31;5077826;28;1143;-34
2021/08/23 03:35:51;;;;;;;;;;;;;;;29.68;41.82;101024.66;5076546;28;798;-34
2021/08/23 03:38:16;;;;;;;;;;;;;;;29.40;38.71;101028.09;5085130;28;1972;-36
2021/08/23 03:40:42;;;;;;;;;;;;;;;28.88;38.39;101028.91;5096487;28;752;-34
2021/08/23 03:43:07;;;;;;;;;;;;;;;28.26;40.27;101022.81;5093303;28;1364;-34
2021/08/23 03:45:32;;;;;;;;;;;;;;;28.14;39.06;101028.69;5086333;28;775;-39
2021/08/23 03:47:58;;;;;;;;;;;;;;;27.80;39.76;101022.72;5077165;28;1288;-35
2021/08/23 03:50:23;;;;;;;;;;;;;;;27.83;39.02;101018.78;5091861;28;1696;-39
2021/08/23 03:52:48;;;;;;;;;;;;;;;27.83;39.68;101029.59;5076819;28;811;-37
2021/08/23 03:55:14;;;;;;;;;;;;;;;27.68;39.85;101032.22;5076301;28;835;-38
2021/08/23 03:57:39;;;;;;;;;;;;;;;27.20;42.02;101031.34;5076218;28;768;-39
2021/08/23 04:00:05;;;;;;;;;;;;;;;27.39;40.81;101024.63;5075132;28;1975;-43
2021/08/23 04:02:30;;;;;;;;;;;;;;;27.70;39.78;101031.06;5086876;28;1001;-40
2021/08/23 04:04:55;;;;;;;;;;;;;;;27.46;40.10;101032.88;5096229;28;832;-41
2021/08/23 04:07:21;;;;;;;;;;;;;;;27.68;39.99;101032.22;5095876;28;791;-41
2021/08/23 04:09:46;;;;;;;;;;;;;;;27.65;39.98;101029.88;5096155;28;920;-47
2021/08/23 04:12:11;;;;;;;;;;;;;;;27.94;40.04;101025.66;5096700;28;752;-37
2021/08/23 04:14:37;;;;;;;;;;;;;;;28.27;38.67;101030.75;5095641;28;1308;-36
2021/08/23 04:17:02;;;;;;;;;;;;;;;28.27;38.90;101029.91;5094962;28;875;-36
2021/08/23 04:19:28;;;;;;;;;;;;;;;27.66;41.05;101027.00;5095977;28;1965;-36
2021/08/23 04:21:54;;;;;;;;;;;;;;;27.64;41.60;101029.06;5096133;28;783;-39
2021/08/23 04:24:19;;;;;;;;;;;;;;;28.17;39.76;101024.75;5096312;28;796;-36
2021/08/23 04:26:44;;;;;;;;;;;;;;;28.43;38.97;101028.91;5096240;28;783;-48
2021/08/23 04:29:09;;;;;;;;;;;;;;;28.48;38.61;101030.06;5095492;28;993;-38
2021/08/23 04:31:35;;;;;;;;;;;;;;;28.57;38.47;101028.09;5092519;28;950;-53
2021/08/23 04:34:00;;;;;;;;;;;;;;;28.67;38.19;101027.84;5075984;28;774;-37
2021/08/23 04:36:25;;;;;;;;;;;;;;;28.65;38.20;101029.03;5075452;28;879;-38
2021/08/23 04:38:51;;;;;;;;;;;;;;;28.70;38.17;101030.16;5075306;28;1958;-42
2021/08/23 04:41:16;;;;;;;;;;;;;;;28.71;38.39;101025.59;5075874;28;789;-39
2021/08/23 04:43:41;;;;;;;;;;;;;;;28.71;38.13;101026.41;5075119;28;783;-38
2021/08/23 04:46:06;;;;;;;;;;;;;;;28.76;38.27;101028.56;5076232;28;800;-37
2021/08/23 04:48:32;;;;;;;;;;;;;;;28.78;38.09;101022.97;5094517;28;1186;-37
2021/08/23 04:50:57;;;;;;;;;;;;;;;28.84;38.08;101016.81;5075369;28;850;-37
2021/08/23 04:53:22;;;;;;;;;;;;;;;28.80;37.90;101016.34;5075772;28;841;-36
2021/08/23 04:55:48;;;;;;;;;;;;;;;28.88;38.20;101025.41;5075726;28;770;-38
2021/08/23 04:58:13;;;;;;;;;;;;;;;28.83;38.12;101017.81;5075482;28;1910;-37
2021/08/23 05:00:38;;;;;;;;;;;;;;;28.83;38.33;101018.66;5079338;28;914;-38
2021/08/23 05:03:04;;;;;;;;;;;;;;;28.82;38.78;101021.56;5094691;28;955;-38
2021/08/23 05:05:29;;;;;;;;;;;;;;;28.78;38.73;101020.28;5098720;28;823;-39
2021/08/23 05:07:55;;;;;;;;;;;;;;;28.84;38.72;101024.94;5099331;28;842;-37
2021/08/23 05:10:20;;;;;;;;;;;;;;;28.82;38.87;101026.97;5098640;28;800;-37
2021/08/23 05:12:45;;;;;;;;;;;;;;;28.67;37.63;101025.13;5098616;28;692;-38
2021/08/23 05:15:10;;;;;;;;;;;;;;;28.40;37.66;101029.28;5099282;28;839;-36
2021/08/23 05:17:36;;;;;;;;;;;;;;;28.20;37.80;101033.34;5086999;28;918;-35
2021/08/23 05:20:01;;;;;;;;;;;;;;;28.04;37.39;101025.38;5078044;28;1967;-40
2021/08/23 05:22:27;;;;;;;;;;;;;;;28.40;39.08;101032.84;5078760;28;826;-44
2021/08/23 05:24:52;;;;;;;;;;;;;;;28.63;39.14;101029.22;5078995;28;843;-39
2021/08/23 05:27:17;;;;;;;;;;;;;;;28.73;38.94;101032.50;5078967;28;782;-36
2021/08/23 05:29:43;;;;;;;;;;;;;;;28.82;38.90;101038.66;5078588;28;835;-39
2021/08/23 05:32:09;;;;;;;;;;;;;;;28.85;38.91;101038.28;5086451;28;990;-37
2021/08/23 05:34:34;;;;;;;;;;;;;;;28.88;38.86;101037.03;5098354;28;871;-39
2021/08/23 05:36:59;;;;;;;;;;;;;;;28.94;39.06;101033.59;5098754;28;747;-37
2021/08/23 05:39:25;;;;;;;;;;;;;;;28.98;38.90;101030.56;5098422;28;1958;-41
2021/08/23 05:41:50;;;;;;;;;;;;;;;29.11;38.81;101027.16;5098448;28;1439;-35
2021/08/23 05:44:15;;;;;;;;;;;;;;;29.16;38.68;101030.97;5098671;28;787;-40
2021/08/23 05:46:40;;;;;;;;;;;;;;;28.89;38.59;101027.91;5084515;28;1252;-39
2021/08/23 05:49:06;;;;;;;;;;;;;;;28.66;37.25;101019.91;5093595;28;1624;-41
2021/08/23 05:51:35;;;;;;;;;;;;;;;28.90;38.43;101026.03;5078413;28;997;-38
2021/08/23 05:54:01;;;;;;;;;;;;;;;29.00;38.54;101020.34;5078247;28;836;-39
2021/08/23 05:56:26;;;;;;;;;;;;;;;29.02;38.70;101021.84;5078240;28;791;-38
2021/08/23 05:58:51;;;;;;;;;;;;;;;29.06;38.94;101015.00;5077681;28;1913;-37
2021/08/23 06:01:16;;;;;;;;;;;;;;;29.00;38.87;101007.66;5078492;28;966;-35
2021/08/23 06:03:44;;;;;;;;;;;;;;;29.13;38.81;101015.09;5098386;28;796;-39
2021/08/23 06:06:10;;;;;;;;;;;;;;;29.11;38.84;101013.63;5096815;28;1477;-36
2021/08/23 06:08:35;;;;;;;;;;;;;;;29.15;38.88;101001.34;5098077;28;839;-36
2021/08/23 06:11:03;;;;;;;;;;;;;;;29.11;39.06;101008.19;5098334;28;747;-37
2021/08/23 06:13:28;;;;;;;;;;;;;;;29.23;38.91;101008.53;5097773;28;767;-36
2021/08/23 06:15:54;;;;;;;;;;;;;;;29.24;38.89;101002.09;5097920;28;832;-35
2021/08/23 06:18:20;;;;;;;;;;;;;;;29.25;38.96;101004.59;5079829;28;1902;-38
2021/08/23 06:20:45;;;;;;;;;;;;;;;29.26;39.15;101010.88;5077245;28;826;-39
2021/08/23 06:23:10;;;;;;;;;;;;;;;29.19;39.31;101005.38;5077687;28;807;-39
2021/08/23 06:25:36;;;;;;;;;;;;;;;29.28;39.34;101009.63;5077503;28;796;-40
2021/08/23 06:28:01;;;;;;;;;;;;;;;29.24;39.76;101004.78;5077262;28;840;-42
2021/08/23 06:30:29;;;;;;;;;;;;;;;29.23;39.76;101003.13;5077334;28;891;-42
2021/08/23 06:32:54;;;;;;;;;;;;;;;29.31;39.73;101011.13;5091369;28;935;-36
2021/08/23 06:35:20;;;;;;;;;;;;;;;29.29;39.90;101000.50;5097093;28;843;-38
2021/08/23 06:37:45;;;;;;;;;;;;;;;29.47;39.98;100999.19;5097382;28;763;-38
2021/08/23 06:40:10;;;;;;;;;;;;;;;29.41;40.05;100997.28;5097603;28;1967;-39
2021/08/23 06:42:36;;;;;;;;;;;;;;;29.46;40.30;101003.78;5096679;28;771;-37
2021/08/23 06:45:02;;;;;;;;;;;;;;;29.50;40.52;101011.50;5097474;28;808;-39
2021/08/23 06:47:27;;;;;;;;;;;;;;;29.66;39.90;101010.47;5086505;28;966;-37
2021/08/23 06:49:53;;;;;;;;;;;;;;;29.66;40.25;101010.47;5087757;28;1550;-35
2021/08/23 06:52:18;;;;;;;;;;;;;;;29.67;40.63;101012.13;5097457;28;800;-40
2021/08/23 06:54:43;;;;;;;;;;;;;;;29.74;40.16;101009.50;5097350;28;867;-40
2021/08/23 06:57:08;;;;;;;;;;;;;;;29.77;39.74;101009.09;5096901;28;814;-38
2021/08/23 06:59:34;;;;;;;;;;;;;;;29.75;39.66;101003.03;5097178;28;1971;-37
2021/08/23 07:01:59;;;;;;;;;;;;;;;29.77;39.62;101001.81;5090240;28;973;-37
2021/08/23 07:04:24;;;;;;;;;;;;;;;29.89;39.18;101007.56;5075974;28;837;-37
2021/08/23 07:06:50;;;;;;;;;;;;;;;29.93;39.32;101014.25;5076773;28;829;-36
2021/08/23 07:09:15;;;;;;;;;;;;;;;29.93;39.35;101013.41;5076822;28;898;-35
2021/08/23 07:11:40;;;;;;;;;;;;;;;29.91;39.52;101010.88;5076250;28;763;-35
2021/08/23 07:14:05;;;;;;;;;;;;;;;29.94;39.41;101015.09;5077203;28;799;-39
2021/08/23 07:16:31;;;;;;;;;;;;;;;30.00;39.33;101011.59;5078501;28;903;-37
2021/08/23 07:18:56;;;;;;;;;;;;;;;29.78;39.37;101016.22;5093031;28;1957;-38
2021/08/23 07:21:21;;;;;;;;;;;;;;;29.65;39.09;101009.63;5095874;28;910;-40
2021/08/23 07:23:47;;;;;;;;;;;;;;;29.90;39.58;101001.06;5081462;28;868;-39
2021/08/23 07:26:12;;;;;;;;;;;;;;;29.77;39.74;101004.53;5076151;28;866;-42
2021/08/23 07:28:40;;;;;;;;;;;;;;;29.76;39.73;101008.25;5076360;28;756;-44
2021/08/23 07:31:05;;;;;;;;;;;;;;;29.75;39.90;100998.44;5091337;28;829;-37
2021/08/23 07:33:31;;;;;;;;;;;;;;;29.87;40.03;101001.47;5082878;28;954;-39
2021/08/23 07:35:56;;;;;;;;;;;;;;;29.92;39.82;101003.59;5096693;28;829;-42
2021/08/23 07:38:22;;;;;;;;;;;;;;;29.88;39.88;101003.13;5095882;28;1898;-45
2021/08/23 07:40:47;;;;;;;;;;;;;;;29.97;39.91;101003.00;5095594;28;566;-42
2021/08/23 07:43:12;;;;;;;;;;;;;;;30.00;39.50;101011.59;5094984;28;879;-44
2021/08/23 07:45:41;;;;;;;;;;;;;;;29.99;39.35;101014.50;5096314;28;787;-40
2021/08/23 07:48:06;;;;;;;;;;;;;;;29.97;39.07;101011.13;5079679;28;1114;-38
2021/08/23 07:50:32;;;;;;;;;;;;;;;29.95;39.48;101011.34;5092256;28;1652;-38
2021/08/23 07:52:57;;;;;;;;;;;;;;;29.98;39.52;101007.41;5094970;28;736;-44
2021/08/23 07:55:22;;;;;;;;;;;;;;;30.03;39.43;101019.31;5094963;28;842;-36
2021/08/23 07:57:48;;;;;;;;;;;;;;;30.05;39.03;101013.69;5096127;28;789;-40
2021/08/23 08:00:14;;;;;;;;;;;;;;;30.04;38.77;101022.88;5096170;28;1913;-41
2021/08/23 08:02:40;;;;;;;;;;;;;;;29.99;36.51;101017.22;5087439;28;855;-37
2021/08/23 08:05:05;;;;;;;;;;;;;;;30.05;34.56;101017.25;5095854;28;843;-36
2021/08/23 08:07:31;;;;;;;;;;;;;;;30.18;34.71;101021.94;5094882;28;816;-36
2021/08/23 08:09:56;;;;;;;;;;;;;;;30.17;35.00;101017.56;5076012;28;839;-36
2021/08/23 08:12:21;;;;;;;;;;;;;;;30.31;34.25;101017.69;5075156;28;776;-36
2021/08/23 08:14:47;;;;;;;;;;;;;;;30.35;34.63;101018.13;5075700;28;866;-36
2021/08/23 08:17:13;;;;;;;;;;;;;;;30.47;33.79;101024.69;5083823;28;938;-36
2021/08/23 08:19:39;;;;;;;;;;;;;;;30.49;33.43;101021.75;5095503;28;1921;-37
2021/08/23 08:22:05;;;;;;;;;;;;;;;30.47;34.07;101015.69;5079239;28;824;-37
2021/08/23 08:24:31;;;;;;;;;;;;;;;30.36;33.46;101014.38;5075669;28;832;-36
2021/08/23 08:26:56;;;;;;;;;;;;;;;30.42;32.42;101009.00;5075525;28;922;-37
2021/08/23 08:29:21;;;;;;;;;;;;;;;30.42;32.71;101009.00;5075518;28;768;-37
2021/08/23 08:31:47;;;;;;;;;;;;;;;30.29;33.63;101004.31;5080006;28;923;-38
2021/08/23 08:34:12;;;;;;;;;;;;;;;30.37;34.05;101013.34;5097037;28;862;-38
2021/08/23 08:36:37;;;;;;;;;;;;;;;30.45;33.61;101012.34;5099862;28;833;-35
2021/08/23 08:39:03;;;;;;;;;;;;;;;30.38;34.14;101002.28;5084347;28;1906;-35
2021/08/23 08:41:30;;;;;;;;;;;;;;;30.35;34.80;101002.69;5079065;28;807;-35
2021/08/23 08:43:55;;;;;;;;;;;;;;;30.42;34.44;100998.13;5079409;28;747;-36
2021/08/23 08:46:21;;;;;;;;;;;;;;;30.37;34.62;101000.59;5079443;28;860;-38
2021/08/23 08:48:46;;;;;;;;;;;;;;;30.35;34.75;100999.97;5096576;28;1601;-36
2021/08/23 08:51:11;;;;;;;;;;;;;;;30.37;34.69;100989.75;5079411;28;921;-36
2021/08/23 08:53:37;;;;;;;;;;;;;;;30.47;34.23;100985.81;5078480;28;828;-36
2021/08/23 08:56:04;;;;;;;;;;;;;;;30.52;34.40;100995.06;5079063;28;811;-36
2021/08/23 08:58:30;;;;;;;;;;;;;;;30.41;33.64;100982.88;5079011;28;1971;-35
2021/08/23 09:00:55;;;;;;;;;;;;;;;30.35;35.84;100982.84;5077977;28;895;-37
2021/08/23 09:03:27;;;;;;;;;;;;;;;30.60;36.10;100982.34;5096224;28;1020;-39
2021/08/23 09:05:58;;;;;;;;;;;;;;;30.55;37.01;100970.22;5099654;28;900;-41
2021/08/23 09:08:28;;;;;;;;;;;;;;;30.62;36.54;100980.28;5099126;28;839;-40
2021/08/23 09:10:53;;;;;;;;;;;;;;;30.78;38.17;100976.38;5099023;28;783;-38
2021/08/23 09:13:19;;;;;;;;;;;;;;;30.83;37.40;100984.78;5097419;28;886;-40
2021/08/23 09:15:51;;;;;;;;;;;;;;;30.79;37.52;100984.34;5099012;28;803;-41
2021/08/23 09:18:19;;;;;;;;;;;;;;;30.97;37.55;100998.41;5080934;28;1967;-39
2021/08/23 09:20:44;;;;;;;;;;;;;;;31.10;37.79;100979.44;5078620;28;732;-40
2021/08/23 09:23:10;;;;;;;;;;;;;;;30.84;39.61;100991.91;5077200;28;1198;-40
2021/08/23 09:25:36;;;;;;;;;;;;;;;30.73;39.97;100984.31;5077343;28;818;-39
2021/08/23 09:28:02;;;;;;;;;;;;;;;30.96;39.05;100975.84;5078180;28;1485;-40
2021/08/23 09:30:27;;;;;;;;;;;;;;;31.02;39.13;100972.31;5078706;28;950;-37
2021/08/23 09:32:53;;;;;;;;;;;;;;;31.14;38.84;100980.72;5091517;28;938;-39
2021/08/23 09:35:28;;;;;;;;;;;;;;;31.16;38.51;100980.50;5099009;28;732;-40
2021/08/23 09:37:53;;;;;;;;;;;;;;;31.01;38.97;100978.78;5097642;28;823;-40
2021/08/23 09:40:23;;;;;;;;;;;;;;;31.14;38.53;100971.72;5098323;28;1969;-40
2021/08/23 09:42:55;;;;;;;;;;;;;;;31.23;38.38;100975.09;5097923;28;850;-40
2021/08/23 09:45:20;;;;;;;;;;;;;;;31.30;37.75;100970.47;5098517;28;738;-40
2021/08/23 09:47:45;;;;;;;;;;;;;;;31.28;37.09;100969.88;5084663;28;1138;-40
2021/08/23 09:50:15;;;;;;;;;;;;;;;31.25;36.26;100965.66;5090492;28;1676;-39
2021/08/23 09:52:40;;;;;;;;;;;;;;;31.23;35.91;100972.38;5098160;28;847;-39
2021/08/23 09:55:06;;;;;;;;;;;;;;;31.28;35.54;100972.59;5098091;28;766;-40
2021/08/23 09:57:32;;;;;;;;;;;;;;;31.31;35.77;100972.19;5098166;28;784;-39
2021/08/23 09:59:58;;;;;;;;;;;;;;;31.42;34.20;100967.19;5094886;28;1960;-40
2021/08/23 10:02:23;;;;;;;;;;;;;;;31.53;33.43;100963.88;5088322;28;1170;-42
2021/08/23 10:04:49;;;;;;;;;;;;;;;31.64;33.30;100970.56;5093563;28;1007;-42
2021/08/23 10:07:14;;;;;;;;;;;;;;;31.67;32.97;100974.72;5076835;28;740;-41
2021/08/23 10:09:39;;;;;;;;;;;;;;;31.69;32.81;100984.38;5076189;28;903;-41
2021/08/23 10:12:05;;;;;;;;;;;;;;;31.77;33.12;100964.28;5076711;28;803;-42
2021/08/23 10:14:30;;;;;;;;;;;;;;;31.85;32.38;100977.66;5077589;28;712;-41
2021/08/23 10:16:55;;;;;;;;;;;;;;;31.77;32.53;100965.13;5081927;28;829;-41
2021/08/23 10:19:21;;;;;;;;;;;;;;;31.71;33.56;100967.84;5076590;28;1870;-42
2021/08/23 10:21:47;;;;;;;;;;;;;;;31.70;33.40;100968.91;5074878;28;851;-39
2021/08/23 10:24:15;;;;;;;;;;;;;;;31.67;34.05;100969.28;5073020;28;918;-42
2021/08/23 10:26:40;;;;;;;;;;;;;;;31.75;33.71;100961.75;5074304;28;1294;-39
2021/08/23 10:29:07;;;;;;;;;;;;;;;31.82;34.08;100966.34;5097675;28;759;-42
2021/08/23 10:31:33;;;;;;;;;;;;;;;28.24;40.31;100963.50;5088305;28;1106;-42
2021/08/23 10:33:58;;;;;;;;;;;;;;;26.01;41.83;100954.56;5076778;28;867;-41
2021/08/23 10:36:25;;;;;;;;;;;;;;;24.87;43.68;100956.78;5075912;28;1316;-41
2021/08/23 10:38:59;;;;;;;;;;;;;;;24.51;42.75;100955.09;5075576;28;1894;-42
2021/08/23 10:41:25;;;;;;;;;;;;;;;24.19;42.78;100960.13;5077357;28;942;-41
2021/08/23 10:43:51;;;;;;;;;;;;;;;23.69;43.44;100942.78;5077075;28;1080;-41
2021/08/23 10:46:19;;;;;;;;;;;;;;;23.57;43.75;100952.91;5077068;28;827;-40
2021/08/23 10:48:45;;;;;;;;;;;;;;;23.29;43.51;100937.66;5078179;28;1629;-40
2021/08/23 10:51:11;;;;;;;;;;;;;;;23.04;44.24;100936.59;5096980;28;867;-40
2021/08/23 10:53:36;;;;;;;;;;;;;;;22.97;44.11;100942.53;5083630;28;875;-40
2021/08/23 10:56:14;;;;;;;;;;;;;;;22.70;44.36;100936.19;5091947;28;998;-39
2021/08/23 10:58:40;;;;;;;;;;;;;;;22.80;44.05;100933.47;5097210;28;1972;-40
2021/08/23 11:01:14;;;;;;;;;;;;;;;22.88;43.73;100932.72;5095782;28;893;-38
2021/08/23 11:03:39;;;;;;;;;;;;;;;22.63;45.16;100927.03;5096622;28;832;-39
2021/08/23 11:06:05;;;;;;;;;;;;;;;22.94;45.16;100923.22;5092044;28;997;-38
2021/08/23 11:08:30;;;;;;;;;;;;;;;22.91;45.93;100924.34;5079618;28;1052;-38
2021/08/23 11:10:58;;;;;;;;;;;;;;;22.91;46.40;100924.34;5080878;28;998;-39
2021/08/23 11:13:24;;;;;;;;;;;;;;;22.88;46.82;100919.31;5075034;28;1496;-39
2021/08/23 11:15:49;;;;;;;;;;;;;;;22.84;47.35;100908.03;5076247;28;747;-40
2021/08/23 11:18:15;;;;;;;;;;;;;;;22.93;47.67;100900.91;5074496;28;1894;-39
2021/08/23 11:20:40;;;;;;;;;;;;;;;23.16;50.61;100905.00;5076523;28;1106;-38
2021/08/23 11:23:12;;;;;;;;;;;;;;;26.16;41.94;100912.44;5076045;28;871;-39
2021/08/23 11:25:37;;;;;;;;;;;;;;;27.39;40.70;100908.47;5088471;28;947;-39
2021/08/23 11:28:07;;;;;;;;;;;;;;;23.87;45.55;100901.59;5096277;28;888;-40
2021/08/23 11:30:36;;;;;;;;;;;;;;;22.95;46.54;100901.63;5095561;28;824;-38
2021/08/23 11:33:01;;;;;;;;;;;;;;;22.69;48.00;100913.03;5096091;28;911;-37
2021/08/23 11:35:26;;;;;;;;;;;;;;;22.87;48.40;100912.25;5096282;28;748;-41
2021/08/23 11:37:55;;;;;;;;;;;;;;;22.81;48.64;100902.09;5096253;28;799;-41
2021/08/23 11:40:21;;;;;;;;;;;;;;;22.58;49.20;100905.16;5085149;28;2037;-39
2021/08/23 11:42:46;;;;;;;;;;;;;;;22.75;48.96;100900.88;5076120;28;859;-38
2021/08/23 11:45:18;;;;;;;;;;;;;;;22.69;49.53;100896.13;5073527;28;1471;-39
2021/08/23 11:47:48;;;;;;;;;;;;;;;22.80;50.96;100897.75;5075051;28;1262;-38
2021/08/23 11:50:13;;;;;;;;;;;;;;;25.71;43.84;100903.09;5075982;28;1621;-38
2021/08/23 11:52:39;;;;;;;;;;;;;;;26.97;41.71;100905.22;5075019;28;827;-38
2021/08/23 11:55:05;;;;;;;;;;;;;;;27.57;40.55;100907.34;5073963;28;928;-38
2021/08/23 11:57:32;;;;;;;;;;;;;;;26.49;43.39;100892.63;5074537;28;871;-39
2021/08/23 12:00:00;;;;;;;;;;;;;;;23.79;47.49;100889.78;5075821;28;1977;-38
2021/08/23 12:02:29;;;;;;;;;;;;;;;22.84;49.41;100886.56;5074044;28;858;-40
2021/08/23 12:05:05;;;;;;;;;;;;;;;22.73;50.09;100884.09;5075453;28;903;-40
2021/08/23 12:07:39;;;;;;;;;;;;;;;22.61;50.49;100889.66;5074322;28;855;-41
2021/08/23 12:10:06;;;;;;;;;;;;;;;22.51;50.55;100878.09;5086619;28;863;-41
2021/08/23 12:12:31;;;;;;;;;;;;;;;23.03;50.52;100892.81;5100002;28;799;-40
2021/08/23 12:14:57;;;;;;;;;;;;;;;26.22;42.77;100891.19;5099921;28;716;-41
2021/08/23 12:17:29;;;;;;;;;;;;;;;27.22;40.54;100885.31;5099633;28;724;-41
2021/08/23 12:20:04;;;;;;;;;;;;;;;27.70;38.69;100890.53;5093707;28;2237;-41
2021/08/23 12:22:30;;;;;;;;;;;;;;;27.91;35.42;100888.94;5078642;28;805;-41
2021/08/23 12:24:56;;;;;;;;;;;;;;;28.05;35.97;100878.34;5086140;28;918;-39
2021/08/23 12:27:23;;;;;;;;;;;;;;;28.19;36.81;100885.63;5099903;28;747;-40
2021/08/23 12:29:48;;;;;;;;;;;;;;;28.33;37.30;100883.09;5099521;28;831;-42
2021/08/23 12:32:13;;;;;;;;;;;;;;;28.47;37.42;100886.81;5099668;28;799;-35
2021/08/23 12:34:43;;;;;;;;;;;;;;;28.55;38.04;100885.88;5098737;28;948;-34
2021/08/23 12:37:08;;;;;;;;;;;;;;;28.59;38.38;100890.72;5099457;28;783;-37
2021/08/23 12:39:33;;;;;;;;;;;;;;;28.75;37.96;100888.81;5094870;28;1976;-40
2021/08/23 12:42:00;;;;;;;;;;;;;;;28.73;38.21;100885.47;5079377;28;743;-41
2021/08/23 12:44:26;;;;;;;;;;;;;;;28.83;38.42;100887.84;5079680;28;718;-41
2021/08/23 12:46:51;;;;;;;;;;;;;;;28.95;39.96;100888.19;5078623;28;729;-39
2021/08/23 12:49:17;;;;;;;;;;;;;;;28.98;38.61;100889.72;5077684;28;1471;-40